sensor_id;sensor_type;location;lat;lon;timestamp;temperature;humidity
16128;DHT22;8168;49.036;7.690;2023-11-19T00:00:31;9.20;99.90
16128;DHT22;8168;49.036;7.690;2023-11-19T00:03:02;9.30;99.90
16128;DHT22;8168;49.036;7.690;2023-11-19T00:05:33;9.30;99.90
16128;DHT22;8168;49.036;7.690;2023-11-19T00:08:04;9.30;99.90
16128;DHT22;8168;49.036;7.690;2023-11-19T00:10:36;9.30;99.90
16128;DHT22;8168;49.036;7.690;2023-11-19T00:13:06;9.30;99.90
16128;DHT22;8168;49.036;7.690;2023-11-19T00:15:37;9.30;99.90
16128;DHT22;8168;49.036;7.690;2023-11-19T00:18:08;9.40;99.90
16128;DHT22;8168;49.036;7.690;2023-11-19T00:20:38;9.30;99.90
16128;DHT22;8168;49.036;7.690;2023-11-19T00:23:09;9.40;99.90
16128;DHT22;8168;49.036;7.690;2023-11-19T00:25:39;9.40;99.90
16128;DHT22;8168;49.036;7.690;2023-11-19T00:28:10;9.40;99.90
16128;DHT22;8168;49.036;7.690;2023-11-19T00:30:41;9.40;99.90
16128;DHT22;8168;49.036;7.690;2023-11-19T00:33:11;9.30;99.90
16128;DHT22;8168;49.036;7.690;2023-11-19T00:35:42;9.40;99.90
16128;DHT22;8168;49.036;7.690;2023-11-19T00:38:14;9.30;99.90
16128;DHT22;8168;49.036;7.690;2023-11-19T00:40:44;9.30;99.90
16128;DHT22;8168;49.036;7.690;2023-11-19T00:43:15;9.30;99.90
16128;DHT22;8168;49.036;7.690;2023-11-19T00:45:45;9.30;99.90
16128;DHT22;8168;49.036;7.690;2023-11-19T00:48:16;9.30;99.90
16128;DHT22;8168;49.036;7.690;2023-11-19T00:50:47;9.40;99.90
16128;DHT22;8168;49.036;7.690;2023-11-19T00:53:18;9.40;99.90
16128;DHT22;8168;49.036;7.690;2023-11-19T00:55:48;9.40;99.90
16128;DHT22;8168;49.036;7.690;2023-11-19T00:58:19;9.40;99.90
16128;DHT22;8168;49.036;7.690;2023-11-19T01:00:49;9.40;99.90
16128;DHT22;8168;49.036;7.690;2023-11-19T01:03:20;9.40;99.90
16128;DHT22;8168;49.036;7.690;2023-11-19T01:05:51;9.50;99.90
16128;DHT22;8168;49.036;7.690;2023-11-19T01:08:22;9.50;99.90
16128;DHT22;8168;49.036;7.690;2023-11-19T01:10:55;9.20;99.90
16128;DHT22;8168;49.036;7.690;2023-11-19T01:13:25;9.60;99.90
16128;DHT22;8168;49.036;7.690;2023-11-19T01:15:56;9.70;99.90
16128;DHT22;8168;49.036;7.690;2023-11-19T01:18:27;9.80;99.90
16128;DHT22;8168;49.036;7.690;2023-11-19T01:20:57;9.90;99.90
16128;DHT22;8168;49.036;7.690;2023-11-19T01:23:28;10.00;99.90
16128;DHT22;8168;49.036;7.690;2023-11-19T01:25:58;10.00;99.90
16128;DHT22;8168;49.036;7.690;2023-11-19T01:28:29;10.10;99.90
16128;DHT22;8168;49.036;7.690;2023-11-19T01:31:01;10.10;99.90
16128;DHT22;8168;49.036;7.690;2023-11-19T01:33:31;10.20;99.90
16128;DHT22;8168;49.036;7.690;2023-11-19T01:36:02;10.20;99.90
16128;DHT22;8168;49.036;7.690;2023-11-19T01:38:35;10.20;99.90
16128;DHT22;8168;49.036;7.690;2023-11-19T01:41:06;10.30;99.90
16128;DHT22;8168;49.036;7.690;2023-11-19T01:43:38;10.30;99.90
16128;DHT22;8168;49.036;7.690;2023-11-19T01:46:12;10.30;99.90
16128;DHT22;8168;49.036;7.690;2023-11-19T01:48:45;10.40;99.90
16128;DHT22;8168;49.036;7.690;2023-11-19T01:51:16;10.40;99.90
16128;DHT22;8168;49.036;7.690;2023-11-19T01:53:48;10.50;99.90
16128;DHT22;8168;49.036;7.690;2023-11-19T01:56:20;10.50;99.90
16128;DHT22;8168;49.036;7.690;2023-11-19T01:58:52;10.60;99.90
16128;DHT22;8168;49.036;7.690;2023-11-19T02:01:24;10.60;99.90
16128;DHT22;8168;49.036;7.690;2023-11-19T02:03:55;10.60;99.90
16128;DHT22;8168;49.036;7.690;2023-11-19T02:06:26;10.60;99.90
16128;DHT22;8168;49.036;7.690;2023-11-19T02:08:57;10.60;99.90
16128;DHT22;8168;49.036;7.690;2023-11-19T02:11:29;10.60;99.90
16128;DHT22;8168;49.036;7.690;2023-11-19T02:14:00;10.70;99.90
16128;DHT22;8168;49.036;7.690;2023-11-19T02:16:30;10.70;99.90
16128;DHT22;8168;49.036;7.690;2023-11-19T02:19:01;10.70;99.90
16128;DHT22;8168;49.036;7.690;2023-11-19T02:21:32;10.70;99.90
16128;DHT22;8168;49.036;7.690;2023-11-19T02:24:06;10.70;99.90
16128;DHT22;8168;49.036;7.690;2023-11-19T02:29:21;10.80;99.90
16128;DHT22;8168;49.036;7.690;2023-11-19T02:31:52;10.80;99.90
16128;DHT22;8168;49.036;7.690;2023-11-19T02:34:25;10.80;99.90
16128;DHT22;8168;49.036;7.690;2023-11-19T02:36:55;10.80;99.90
16128;DHT22;8168;49.036;7.690;2023-11-19T02:39:26;10.80;99.90
16128;DHT22;8168;49.036;7.690;2023-11-19T02:41:57;10.80;99.90
16128;DHT22;8168;49.036;7.690;2023-11-19T02:44:28;10.80;99.90
16128;DHT22;8168;49.036;7.690;2023-11-19T02:47:00;10.90;99.90
16128;DHT22;8168;49.036;7.690;2023-11-19T02:49:32;10.80;99.90
16128;DHT22;8168;49.036;7.690;2023-11-19T02:52:03;10.80;99.90
16128;DHT22;8168;49.036;7.690;2023-11-19T02:54:36;10.90;99.90
16128;DHT22;8168;49.036;7.690;2023-11-19T02:57:07;10.90;99.90
16128;DHT22;8168;49.036;7.690;2023-11-19T02:59:40;10.90;99.90
16128;DHT22;8168;49.036;7.690;2023-11-19T03:02:13;10.90;99.90
16128;DHT22;8168;49.036;7.690;2023-11-19T03:04:46;10.90;99.90
16128;DHT22;8168;49.036;7.690;2023-11-19T03:07:17;10.90;99.90
16128;DHT22;8168;49.036;7.690;2023-11-19T03:09:48;10.90;99.90
16128;DHT22;8168;49.036;7.690;2023-11-19T03:12:19;11.00;99.90
16128;DHT22;8168;49.036;7.690;2023-11-19T03:14:51;11.00;99.90
16128;DHT22;8168;49.036;7.690;2023-11-19T03:17:21;11.00;99.90
16128;DHT22;8168;49.036;7.690;2023-11-19T03:19:52;11.00;99.90
16128;DHT22;8168;49.036;7.690;2023-11-19T03:22:22;11.10;99.90
16128;DHT22;8168;49.036;7.690;2023-11-19T03:24:53;11.10;99.90
16128;DHT22;8168;49.036;7.690;2023-11-19T03:27:23;11.10;99.90
16128;DHT22;8168;49.036;7.690;2023-11-19T03:29:54;11.10;99.90
16128;DHT22;8168;49.036;7.690;2023-11-19T03:32:25;11.20;99.90
16128;DHT22;8168;49.036;7.690;2023-11-19T03:34:55;11.20;99.90
16128;DHT22;8168;49.036;7.690;2023-11-19T03:37:26;11.20;99.90
16128;DHT22;8168;49.036;7.690;2023-11-19T03:39:57;11.20;99.90
16128;DHT22;8168;49.036;7.690;2023-11-19T03:42:30;11.30;99.90
16128;DHT22;8168;49.036;7.690;2023-11-19T03:45:03;11.30;99.90
16128;DHT22;8168;49.036;7.690;2023-11-19T03:47:35;11.30;99.90
16128;DHT22;8168;49.036;7.690;2023-11-19T03:50:06;11.30;99.90
16128;DHT22;8168;49.036;7.690;2023-11-19T03:52:38;11.30;99.90
16128;DHT22;8168;49.036;7.690;2023-11-19T03:55:09;11.30;99.90
16128;DHT22;8168;49.036;7.690;2023-11-19T03:57:39;11.30;99.90
16128;DHT22;8168;49.036;7.690;2023-11-19T04:00:10;11.30;99.90
16128;DHT22;8168;49.036;7.690;2023-11-19T04:02:44;11.30;99.90
16128;DHT22;8168;49.036;7.690;2023-11-19T04:05:14;11.30;99.90
16128;DHT22;8168;49.036;7.690;2023-11-19T04:07:45;11.30;99.90
16128;DHT22;8168;49.036;7.690;2023-11-19T04:10:16;11.30;99.90
16128;DHT22;8168;49.036;7.690;2023-11-19T04:12:47;11.40;99.90
16128;DHT22;8168;49.036;7.690;2023-11-19T04:15:17;11.40;99.90
16128;DHT22;8168;49.036;7.690;2023-11-19T04:17:48;11.40;99.90
16128;DHT22;8168;49.036;7.690;2023-11-19T04:20:19;11.40;99.90
16128;DHT22;8168;49.036;7.690;2023-11-19T04:22:50;11.40;99.90
16128;DHT22;8168;49.036;7.690;2023-11-19T04:25:21;11.50;99.90
16128;DHT22;8168;49.036;7.690;2023-11-19T04:27:52;11.40;99.90
16128;DHT22;8168;49.036;7.690;2023-11-19T04:30:22;11.50;99.90
16128;DHT22;8168;49.036;7.690;2023-11-19T04:32:53;11.50;99.90
16128;DHT22;8168;49.036;7.690;2023-11-19T04:35:23;11.50;99.90
16128;DHT22;8168;49.036;7.690;2023-11-19T04:37:56;11.60;99.90
16128;DHT22;8168;49.036;7.690;2023-11-19T04:40:27;11.60;99.90
16128;DHT22;8168;49.036;7.690;2023-11-19T04:42:58;11.60;99.90
16128;DHT22;8168;49.036;7.690;2023-11-19T04:45:29;11.60;99.90
16128;DHT22;8168;49.036;7.690;2023-11-19T04:47:59;11.70;99.90
16128;DHT22;8168;49.036;7.690;2023-11-19T04:50:30;11.60;99.90
16128;DHT22;8168;49.036;7.690;2023-11-19T04:53:00;11.70;99.90
16128;DHT22;8168;49.036;7.690;2023-11-19T04:55:31;11.70;99.90
16128;DHT22;8168;49.036;7.690;2023-11-19T04:58:02;11.70;99.90
16128;DHT22;8168;49.036;7.690;2023-11-19T05:00:33;11.70;99.90
16128;DHT22;8168;49.036;7.690;2023-11-19T05:03:04;11.70;99.90
16128;DHT22;8168;49.036;7.690;2023-11-19T05:05:34;11.70;99.90
16128;DHT22;8168;49.036;7.690;2023-11-19T05:08:05;11.80;99.90
16128;DHT22;8168;49.036;7.690;2023-11-19T05:10:35;11.80;99.90
16128;DHT22;8168;49.036;7.690;2023-11-19T05:13:07;11.90;99.90
16128;DHT22;8168;49.036;7.690;2023-11-19T05:15:37;11.90;99.90
16128;DHT22;8168;49.036;7.690;2023-11-19T05:18:08;11.90;99.90
16128;DHT22;8168;49.036;7.690;2023-11-19T05:20:39;12.00;99.90
16128;DHT22;8168;49.036;7.690;2023-11-19T05:23:09;12.00;99.90
16128;DHT22;8168;49.036;7.690;2023-11-19T05:25:40;12.00;99.90
16128;DHT22;8168;49.036;7.690;2023-11-19T05:28:11;12.00;99.90
16128;DHT22;8168;49.036;7.690;2023-11-19T05:30:41;12.00;99.90
16128;DHT22;8168;49.036;7.690;2023-11-19T05:33:12;12.10;99.90
16128;DHT22;8168;49.036;7.690;2023-11-19T05:35:42;12.00;99.90
16128;DHT22;8168;49.036;7.690;2023-11-19T05:38:13;12.00;99.90
16128;DHT22;8168;49.036;7.690;2023-11-19T05:40:44;12.10;99.90
16128;DHT22;8168;49.036;7.690;2023-11-19T05:43:15;12.10;99.90
16128;DHT22;8168;49.036;7.690;2023-11-19T05:45:47;12.10;99.90
16128;DHT22;8168;49.036;7.690;2023-11-19T05:48:17;12.20;99.90
16128;DHT22;8168;49.036;7.690;2023-11-19T05:50:48;12.20;99.90
16128;DHT22;8168;49.036;7.690;2023-11-19T05:53:20;12.10;99.90
16128;DHT22;8168;49.036;7.690;2023-11-19T05:55:50;12.20;99.90
16128;DHT22;8168;49.036;7.690;2023-11-19T05:58:27;12.20;99.90
16128;DHT22;8168;49.036;7.690;2023-11-19T06:00:59;12.20;99.90
16128;DHT22;8168;49.036;7.690;2023-11-19T06:03:33;12.20;99.90
16128;DHT22;8168;49.036;7.690;2023-11-19T06:06:04;12.30;99.90
16128;DHT22;8168;49.036;7.690;2023-11-19T06:08:35;12.30;99.90
16128;DHT22;8168;49.036;7.690;2023-11-19T06:11:06;12.30;99.90
16128;DHT22;8168;49.036;7.690;2023-11-19T06:13:37;12.30;99.90
16128;DHT22;8168;49.036;7.690;2023-11-19T06:16:08;12.30;99.90
16128;DHT22;8168;49.036;7.690;2023-11-19T06:18:38;12.30;99.90
16128;DHT22;8168;49.036;7.690;2023-11-19T06:21:10;12.40;99.90
16128;DHT22;8168;49.036;7.690;2023-11-19T06:23:40;12.40;99.90
16128;DHT22;8168;49.036;7.690;2023-11-19T06:26:11;12.40;99.90
16128;DHT22;8168;49.036;7.690;2023-11-19T06:28:42;12.40;99.90
16128;DHT22;8168;49.036;7.690;2023-11-19T06:31:12;12.40;99.90
16128;DHT22;8168;49.036;7.690;2023-11-19T06:33:46;12.40;99.90
16128;DHT22;8168;49.036;7.690;2023-11-19T06:36:17;12.40;99.90
16128;DHT22;8168;49.036;7.690;2023-11-19T06:38:47;12.40;99.90
16128;DHT22;8168;49.036;7.690;2023-11-19T06:41:18;12.40;99.90
16128;DHT22;8168;49.036;7.690;2023-11-19T06:43:49;12.50;99.90
16128;DHT22;8168;49.036;7.690;2023-11-19T06:46:19;12.50;99.90
16128;DHT22;8168;49.036;7.690;2023-11-19T06:48:50;12.50;99.90
16128;DHT22;8168;49.036;7.690;2023-11-19T06:51:21;12.50;99.90
16128;DHT22;8168;49.036;7.690;2023-11-19T06:53:53;12.50;99.90
16128;DHT22;8168;49.036;7.690;2023-11-19T06:56:24;12.50;99.90
16128;DHT22;8168;49.036;7.690;2023-11-19T06:58:54;12.60;99.90
16128;DHT22;8168;49.036;7.690;2023-11-19T07:01:25;12.60;99.90
16128;DHT22;8168;49.036;7.690;2023-11-19T07:03:55;14.80;99.90
16128;DHT22;8168;49.036;7.690;2023-11-19T07:06:28;12.60;99.90
16128;DHT22;8168;49.036;7.690;2023-11-19T07:08:59;12.60;99.90
16128;DHT22;8168;49.036;7.690;2023-11-19T07:11:32;12.70;99.90
16128;DHT22;8168;49.036;7.690;2023-11-19T07:14:03;12.60;99.90
16128;DHT22;8168;49.036;7.690;2023-11-19T07:16:35;12.70;99.90
16128;DHT22;8168;49.036;7.690;2023-11-19T07:19:07;12.70;99.90
16128;DHT22;8168;49.036;7.690;2023-11-19T07:21:41;12.70;99.90
16128;DHT22;8168;49.036;7.690;2023-11-19T07:24:14;12.70;99.90
16128;DHT22;8168;49.036;7.690;2023-11-19T07:26:46;12.70;99.90
16128;DHT22;8168;49.036;7.690;2023-11-19T07:29:20;12.80;99.90
16128;DHT22;8168;49.036;7.690;2023-11-19T07:31:53;12.70;99.90
16128;DHT22;8168;49.036;7.690;2023-11-19T07:34:24;12.70;99.90
16128;DHT22;8168;49.036;7.690;2023-11-19T07:36:55;12.80;99.90
16128;DHT22;8168;49.036;7.690;2023-11-19T07:39:29;11.50;99.90
16128;DHT22;8168;49.036;7.690;2023-11-19T07:42:00;12.80;99.90
16128;DHT22;8168;49.036;7.690;2023-11-19T07:44:31;12.70;99.90
16128;DHT22;8168;49.036;7.690;2023-11-19T07:47:02;12.80;99.90
16128;DHT22;8168;49.036;7.690;2023-11-19T07:49:33;12.80;99.90
16128;DHT22;8168;49.036;7.690;2023-11-19T07:52:04;12.70;99.90
16128;DHT22;8168;49.036;7.690;2023-11-19T07:54:35;12.80;99.90
16128;DHT22;8168;49.036;7.690;2023-11-19T07:57:05;12.80;99.90
16128;DHT22;8168;49.036;7.690;2023-11-19T07:59:36;12.80;99.90
16128;DHT22;8168;49.036;7.690;2023-11-19T08:02:07;12.80;99.90
16128;DHT22;8168;49.036;7.690;2023-11-19T08:04:37;12.80;99.90
16128;DHT22;8168;49.036;7.690;2023-11-19T08:07:10;12.80;99.90
16128;DHT22;8168;49.036;7.690;2023-11-19T08:09:41;12.80;99.90
16128;DHT22;8168;49.036;7.690;2023-11-19T08:12:12;12.90;99.90
16128;DHT22;8168;49.036;7.690;2023-11-19T08:14:44;12.90;99.90
16128;DHT22;8168;49.036;7.690;2023-11-19T08:17:15;12.90;99.90
16128;DHT22;8168;49.036;7.690;2023-11-19T08:19:46;12.90;99.90
16128;DHT22;8168;49.036;7.690;2023-11-19T08:22:17;12.90;99.90
16128;DHT22;8168;49.036;7.690;2023-11-19T08:24:48;12.90;99.90
16128;DHT22;8168;49.036;7.690;2023-11-19T08:27:18;12.90;99.90
16128;DHT22;8168;49.036;7.690;2023-11-19T08:29:49;12.90;99.90
16128;DHT22;8168;49.036;7.690;2023-11-19T08:32:20;12.90;99.90
16128;DHT22;8168;49.036;7.690;2023-11-19T08:34:51;12.90;99.90
16128;DHT22;8168;49.036;7.690;2023-11-19T08:37:21;13.00;99.90
16128;DHT22;8168;49.036;7.690;2023-11-19T08:39:52;12.90;99.90
16128;DHT22;8168;49.036;7.690;2023-11-19T08:42:23;13.00;99.90
16128;DHT22;8168;49.036;7.690;2023-11-19T08:44:53;13.00;99.90
16128;DHT22;8168;49.036;7.690;2023-11-19T08:47:25;13.00;99.90
16128;DHT22;8168;49.036;7.690;2023-11-19T08:49:55;13.00;99.90
16128;DHT22;8168;49.036;7.690;2023-11-19T08:52:26;13.00;99.90
16128;DHT22;8168;49.036;7.690;2023-11-19T08:54:56;13.00;99.90
16128;DHT22;8168;49.036;7.690;2023-11-19T08:57:27;13.10;99.90
16128;DHT22;8168;49.036;7.690;2023-11-19T08:59:58;13.00;99.90
16128;DHT22;8168;49.036;7.690;2023-11-19T09:02:28;13.10;99.90
16128;DHT22;8168;49.036;7.690;2023-11-19T09:05:02;13.10;99.90
16128;DHT22;8168;49.036;7.690;2023-11-19T09:07:33;14.10;99.90
16128;DHT22;8168;49.036;7.690;2023-11-19T09:10:04;13.10;99.90
16128;DHT22;8168;49.036;7.690;2023-11-19T09:12:35;13.10;99.90
16128;DHT22;8168;49.036;7.690;2023-11-19T09:15:06;13.10;99.90
16128;DHT22;8168;49.036;7.690;2023-11-19T09:17:37;13.10;99.90
16128;DHT22;8168;49.036;7.690;2023-11-19T09:20:08;13.10;99.90
16128;DHT22;8168;49.036;7.690;2023-11-19T09:22:42;13.10;99.90
16128;DHT22;8168;49.036;7.690;2023-11-19T09:25:13;13.20;99.90
16128;DHT22;8168;49.036;7.690;2023-11-19T09:27:47;13.20;99.90
16128;DHT22;8168;49.036;7.690;2023-11-19T09:30:17;13.20;99.90
16128;DHT22;8168;49.036;7.690;2023-11-19T09:32:48;13.20;99.90
16128;DHT22;8168;49.036;7.690;2023-11-19T09:35:18;13.30;99.90
16128;DHT22;8168;49.036;7.690;2023-11-19T09:37:49;13.20;99.90
16128;DHT22;8168;49.036;7.690;2023-11-19T09:40:20;13.20;99.90
16128;DHT22;8168;49.036;7.690;2023-11-19T09:42:51;13.30;99.90
16128;DHT22;8168;49.036;7.690;2023-11-19T09:45:21;13.30;99.90
16128;DHT22;8168;49.036;7.690;2023-11-19T09:47:57;13.30;99.90
16128;DHT22;8168;49.036;7.690;2023-11-19T09:50:29;13.40;99.90
16128;DHT22;8168;49.036;7.690;2023-11-19T09:52:59;13.30;99.90
16128;DHT22;8168;49.036;7.690;2023-11-19T09:55:30;13.30;99.90
16128;DHT22;8168;49.036;7.690;2023-11-19T09:58:01;13.40;99.90
16128;DHT22;8168;49.036;7.690;2023-11-19T10:00:32;13.40;99.90
16128;DHT22;8168;49.036;7.690;2023-11-19T10:03:04;13.50;99.90
16128;DHT22;8168;49.036;7.690;2023-11-19T10:05:36;13.50;99.90
16128;DHT22;8168;49.036;7.690;2023-11-19T10:08:09;13.60;99.90
16128;DHT22;8168;49.036;7.690;2023-11-19T10:10:41;13.60;99.90
16128;DHT22;8168;49.036;7.690;2023-11-19T10:13:12;13.60;99.90
16128;DHT22;8168;49.036;7.690;2023-11-19T10:15:45;13.60;99.90
16128;DHT22;8168;49.036;7.690;2023-11-19T10:18:17;13.70;99.90
16128;DHT22;8168;49.036;7.690;2023-11-19T10:20:48;13.70;99.90
16128;DHT22;8168;49.036;7.690;2023-11-19T10:23:19;13.70;99.90
16128;DHT22;8168;49.036;7.690;2023-11-19T10:25:53;13.70;99.90
16128;DHT22;8168;49.036;7.690;2023-11-19T10:28:25;13.70;99.90
16128;DHT22;8168;49.036;7.690;2023-11-19T10:30:56;13.70;99.90
16128;DHT22;8168;49.036;7.690;2023-11-19T10:33:29;13.70;99.90
16128;DHT22;8168;49.036;7.690;2023-11-19T10:36:01;13.70;99.90
16128;DHT22;8168;49.036;7.690;2023-11-19T10:38:31;13.70;99.90
16128;DHT22;8168;49.036;7.690;2023-11-19T10:41:02;13.70;99.90
16128;DHT22;8168;49.036;7.690;2023-11-19T10:43:44;13.70;99.90
16128;DHT22;8168;49.036;7.690;2023-11-19T10:46:17;13.70;99.90
16128;DHT22;8168;49.036;7.690;2023-11-19T10:48:51;13.70;99.90
16128;DHT22;8168;49.036;7.690;2023-11-19T10:51:22;13.70;99.90
16128;DHT22;8168;49.036;7.690;2023-11-19T10:53:57;13.70;99.90
16128;DHT22;8168;49.036;7.690;2023-11-19T10:56:32;13.70;99.90
16128;DHT22;8168;49.036;7.690;2023-11-19T10:59:04;13.70;99.90
16128;DHT22;8168;49.036;7.690;2023-11-19T11:01:48;13.70;99.90
16128;DHT22;8168;49.036;7.690;2023-11-19T11:04:23;13.80;99.90
16128;DHT22;8168;49.036;7.690;2023-11-19T11:06:54;13.70;99.90
16128;DHT22;8168;49.036;7.690;2023-11-19T11:09:27;13.70;99.90
16128;DHT22;8168;49.036;7.690;2023-11-19T11:11:59;13.80;99.90
16128;DHT22;8168;49.036;7.690;2023-11-19T11:14:30;13.90;99.90
16128;DHT22;8168;49.036;7.690;2023-11-19T11:17:03;14.00;99.90
16128;DHT22;8168;49.036;7.690;2023-11-19T11:19:35;14.10;99.90
16128;DHT22;8168;49.036;7.690;2023-11-19T11:22:06;14.30;99.90
16128;DHT22;8168;49.036;7.690;2023-11-19T11:25:06;14.40;99.90
16128;DHT22;8168;49.036;7.690;2023-11-19T11:28:21;14.60;99.90
16128;DHT22;8168;49.036;7.690;2023-11-19T11:30:57;14.60;99.90
16128;DHT22;8168;49.036;7.690;2023-11-19T11:33:48;14.60;99.90
16128;DHT22;8168;49.036;7.690;2023-11-19T11:36:25;14.90;99.90
16128;DHT22;8168;49.036;7.690;2023-11-19T11:38:58;15.00;99.90
16128;DHT22;8168;49.036;7.690;2023-11-19T11:41:30;15.00;99.90
16128;DHT22;8168;49.036;7.690;2023-11-19T11:44:01;14.90;99.90
16128;DHT22;8168;49.036;7.690;2023-11-19T11:49:05;15.00;99.90
16128;DHT22;8168;49.036;7.690;2023-11-19T11:57:02;14.90;99.90
16128;DHT22;8168;49.036;7.690;2023-11-19T11:59:43;14.70;99.90
16128;DHT22;8168;49.036;7.690;2023-11-19T12:02:17;14.60;99.90
16128;DHT22;8168;49.036;7.690;2023-11-19T12:04:50;14.50;99.90
16128;DHT22;8168;49.036;7.690;2023-11-19T12:07:23;14.40;99.90
16128;DHT22;8168;49.036;7.690;2023-11-19T12:10:06;14.40;99.90
16128;DHT22;8168;49.036;7.690;2023-11-19T12:12:38;14.30;99.90
16128;DHT22;8168;49.036;7.690;2023-11-19T12:15:11;14.20;99.90
16128;DHT22;8168;49.036;7.690;2023-11-19T12:17:49;14.20;99.90
16128;DHT22;8168;49.036;7.690;2023-11-19T12:20:25;14.20;99.90
16128;DHT22;8168;49.036;7.690;2023-11-19T12:22:56;14.20;99.90
16128;DHT22;8168;49.036;7.690;2023-11-19T12:25:26;14.10;99.90
16128;DHT22;8168;49.036;7.690;2023-11-19T12:27:57;14.10;99.90
16128;DHT22;8168;49.036;7.690;2023-11-19T12:30:28;14.10;99.90
16128;DHT22;8168;49.036;7.690;2023-11-19T12:33:00;14.10;99.90
16128;DHT22;8168;49.036;7.690;2023-11-19T12:35:44;14.20;99.90
16128;DHT22;8168;49.036;7.690;2023-11-19T12:38:24;14.20;99.90
16128;DHT22;8168;49.036;7.690;2023-11-19T12:41:08;14.30;99.90
16128;DHT22;8168;49.036;7.690;2023-11-19T12:43:41;14.30;99.90
16128;DHT22;8168;49.036;7.690;2023-11-19T12:46:22;14.30;99.90
16128;DHT22;8168;49.036;7.690;2023-11-19T12:48:53;12.70;99.90
16128;DHT22;8168;49.036;7.690;2023-11-19T12:51:31;14.40;99.90
16128;DHT22;8168;49.036;7.690;2023-11-19T12:54:03;14.40;99.90
16128;DHT22;8168;49.036;7.690;2023-11-19T12:56:35;14.40;99.90
16128;DHT22;8168;49.036;7.690;2023-11-19T12:59:12;14.50;99.90
16128;DHT22;8168;49.036;7.690;2023-11-19T13:01:57;14.40;99.90
16128;DHT22;8168;49.036;7.690;2023-11-19T13:04:29;14.40;99.90
16128;DHT22;8168;49.036;7.690;2023-11-19T13:07:02;14.40;99.90
16128;DHT22;8168;49.036;7.690;2023-11-19T13:09:34;14.40;99.90
16128;DHT22;8168;49.036;7.690;2023-11-19T13:12:15;14.40;99.90
16128;DHT22;8168;49.036;7.690;2023-11-19T13:14:46;14.30;99.90
16128;DHT22;8168;49.036;7.690;2023-11-19T13:17:17;14.20;99.90
16128;DHT22;8168;49.036;7.690;2023-11-19T13:19:48;14.20;99.90
16128;DHT22;8168;49.036;7.690;2023-11-19T13:22:19;14.20;99.90
16128;DHT22;8168;49.036;7.690;2023-11-19T13:24:50;14.10;99.90
16128;DHT22;8168;49.036;7.690;2023-11-19T13:27:20;14.20;99.90
16128;DHT22;8168;49.036;7.690;2023-11-19T13:29:51;14.10;99.90
16128;DHT22;8168;49.036;7.690;2023-11-19T13:32:21;14.10;99.90
16128;DHT22;8168;49.036;7.690;2023-11-19T13:34:52;14.10;99.90
16128;DHT22;8168;49.036;7.690;2023-11-19T13:37:22;14.10;99.90
16128;DHT22;8168;49.036;7.690;2023-11-19T13:39:53;14.00;99.90
16128;DHT22;8168;49.036;7.690;2023-11-19T13:42:24;14.00;99.90
16128;DHT22;8168;49.036;7.690;2023-11-19T13:44:54;14.00;99.90
16128;DHT22;8168;49.036;7.690;2023-11-19T13:47:26;14.00;99.90
16128;DHT22;8168;49.036;7.690;2023-11-19T13:49:57;14.00;99.90
16128;DHT22;8168;49.036;7.690;2023-11-19T13:52:27;13.90;99.90
16128;DHT22;8168;49.036;7.690;2023-11-19T13:54:58;13.90;99.90
16128;DHT22;8168;49.036;7.690;2023-11-19T13:57:30;13.90;99.90
16128;DHT22;8168;49.036;7.690;2023-11-19T14:00:07;13.90;99.90
16128;DHT22;8168;49.036;7.690;2023-11-19T14:02:43;13.90;99.90
16128;DHT22;8168;49.036;7.690;2023-11-19T14:05:14;13.90;99.90
16128;DHT22;8168;49.036;7.690;2023-11-19T14:07:47;13.90;99.90
16128;DHT22;8168;49.036;7.690;2023-11-19T14:10:18;13.90;99.90
16128;DHT22;8168;49.036;7.690;2023-11-19T14:12:49;13.90;99.90
16128;DHT22;8168;49.036;7.690;2023-11-19T14:15:20;13.80;99.90
16128;DHT22;8168;49.036;7.690;2023-11-19T14:17:50;13.90;99.90
16128;DHT22;8168;49.036;7.690;2023-11-19T14:20:21;13.80;99.90
16128;DHT22;8168;49.036;7.690;2023-11-19T14:22:52;13.80;99.90
16128;DHT22;8168;49.036;7.690;2023-11-19T14:25:23;13.80;99.90
16128;DHT22;8168;49.036;7.690;2023-11-19T14:27:54;13.80;99.90
16128;DHT22;8168;49.036;7.690;2023-11-19T14:30:24;13.80;99.90
16128;DHT22;8168;49.036;7.690;2023-11-19T14:32:55;13.70;99.90
16128;DHT22;8168;49.036;7.690;2023-11-19T14:35:25;13.70;99.90
16128;DHT22;8168;49.036;7.690;2023-11-19T14:37:56;13.70;99.90
16128;DHT22;8168;49.036;7.690;2023-11-19T14:40:27;13.70;99.90
16128;DHT22;8168;49.036;7.690;2023-11-19T14:42:57;13.70;99.90
16128;DHT22;8168;49.036;7.690;2023-11-19T14:45:28;13.60;99.90
16128;DHT22;8168;49.036;7.690;2023-11-19T14:47:59;13.60;99.90
16128;DHT22;8168;49.036;7.690;2023-11-19T14:50:30;13.60;99.90
16128;DHT22;8168;49.036;7.690;2023-11-19T14:53:01;13.60;99.90
16128;DHT22;8168;49.036;7.690;2023-11-19T14:55:32;13.60;99.90
16128;DHT22;8168;49.036;7.690;2023-11-19T14:58:03;13.60;99.90
16128;DHT22;8168;49.036;7.690;2023-11-19T15:00:33;13.60;99.90
16128;DHT22;8168;49.036;7.690;2023-11-19T15:03:04;13.60;99.90
16128;DHT22;8168;49.036;7.690;2023-11-19T15:05:36;13.60;99.90
16128;DHT22;8168;49.036;7.690;2023-11-19T15:08:07;13.60;99.90
16128;DHT22;8168;49.036;7.690;2023-11-19T15:10:37;13.60;99.90
16128;DHT22;8168;49.036;7.690;2023-11-19T15:13:11;13.60;99.90
16128;DHT22;8168;49.036;7.690;2023-11-19T15:15:41;13.60;99.90
16128;DHT22;8168;49.036;7.690;2023-11-19T15:18:12;13.60;99.90
16128;DHT22;8168;49.036;7.690;2023-11-19T15:20:43;13.50;99.90
16128;DHT22;8168;49.036;7.690;2023-11-19T15:23:17;13.40;99.90
16128;DHT22;8168;49.036;7.690;2023-11-19T15:25:48;13.40;99.90
16128;DHT22;8168;49.036;7.690;2023-11-19T15:28:19;13.40;99.90
16128;DHT22;8168;49.036;7.690;2023-11-19T15:30:50;13.30;99.90
16128;DHT22;8168;49.036;7.690;2023-11-19T15:33:20;13.30;99.90
16128;DHT22;8168;49.036;7.690;2023-11-19T15:35:51;13.20;99.90
16128;DHT22;8168;49.036;7.690;2023-11-19T15:38:22;13.10;99.90
16128;DHT22;8168;49.036;7.690;2023-11-19T15:40:53;13.00;99.90
16128;DHT22;8168;49.036;7.690;2023-11-19T15:43:23;12.90;99.90
16128;DHT22;8168;49.036;7.690;2023-11-19T15:45:54;13.00;99.90
16128;DHT22;8168;49.036;7.690;2023-11-19T15:48:25;13.10;99.90
16128;DHT22;8168;49.036;7.690;2023-11-19T15:50:56;13.10;99.90
16128;DHT22;8168;49.036;7.690;2023-11-19T15:53:27;13.10;99.90
16128;DHT22;8168;49.036;7.690;2023-11-19T15:55:58;13.20;99.90
16128;DHT22;8168;49.036;7.690;2023-11-19T15:58:29;13.20;99.90
16128;DHT22;8168;49.036;7.690;2023-11-19T16:00:59;13.20;99.90
16128;DHT22;8168;49.036;7.690;2023-11-19T16:03:31;13.20;99.90
16128;DHT22;8168;49.036;7.690;2023-11-19T16:06:03;13.20;99.90
16128;DHT22;8168;49.036;7.690;2023-11-19T16:08:34;13.20;99.90
16128;DHT22;8168;49.036;7.690;2023-11-19T16:11:05;13.20;99.90
16128;DHT22;8168;49.036;7.690;2023-11-19T16:13:36;13.20;99.90
16128;DHT22;8168;49.036;7.690;2023-11-19T16:16:07;13.10;99.90
16128;DHT22;8168;49.036;7.690;2023-11-19T16:18:38;13.10;99.90
16128;DHT22;8168;49.036;7.690;2023-11-19T16:21:08;13.10;99.90
16128;DHT22;8168;49.036;7.690;2023-11-19T16:23:39;13.10;99.90
16128;DHT22;8168;49.036;7.690;2023-11-19T16:26:10;13.10;99.90